sensor_id;sensor_type;location;lat;lon;timestamp;pressure;altitude;pressure_sealevel;temperature;humidity
36502;BME280;25393;46.108;3.390;2022-12-07T00:01:37;98152.56;;;1.31;100.00
36502;BME280;25393;46.108;3.390;2022-12-07T00:04:06;98150.81;;;1.31;100.00
36502;BME280;25393;46.108;3.390;2022-12-07T00:06:37;98153.19;;;1.34;100.00
36502;BME280;25393;46.108;3.390;2022-12-07T00:09:05;98159.69;;;1.29;100.00
36502;BME280;25393;46.108;3.390;2022-12-07T00:11:34;98128.72;;;1.12;100.00
36502;BME280;25393;46.108;3.390;2022-12-07T00:14:07;98142.03;;;1.20;100.00
36502;BME280;25393;46.108;3.390;2022-12-07T00:16:36;98141.91;;;1.34;100.00
36502;BME280;25393;46.108;3.390;2022-12-07T00:19:06;98145.47;;;1.33;100.00
36502;BME280;25393;46.108;3.390;2022-12-07T00:21:36;98141.09;;;1.33;100.00
36502;BME280;25393;46.108;3.390;2022-12-07T00:24:06;98151.63;;;1.32;100.00
36502;BME280;25393;46.108;3.390;2022-12-07T00:26:35;98127.00;;;1.23;100.00
36502;BME280;25393;46.108;3.390;2022-12-07T00:29:09;98134.41;;;1.29;100.00
36502;BME280;25393;46.108;3.390;2022-12-07T00:31:38;98124.13;;;1.15;100.00
36502;BME280;25393;46.108;3.390;2022-12-07T00:34:06;98144.25;;;1.26;100.00
36502;BME280;25393;46.108;3.390;2022-12-07T00:36:37;98134.91;;;1.34;100.00
36502;BME280;25393;46.108;3.390;2022-12-07T00:39:07;98128.81;;;1.23;100.00
36502;BME280;25393;46.108;3.390;2022-12-07T00:41:38;98136.44;;;1.13;100.00
36502;BME280;25393;46.108;3.390;2022-12-07T00:44:05;98147.53;;;1.04;100.00
36502;BME280;25393;46.108;3.390;2022-12-07T00:46:37;98132.88;;;1.14;100.00
36502;BME280;25393;46.108;3.390;2022-12-07T00:49:07;98137.78;;;1.19;100.00
36502;BME280;25393;46.108;3.390;2022-12-07T00:51:33;98125.81;;;1.04;100.00
36502;BME280;25393;46.108;3.390;2022-12-07T00:54:02;98119.66;;;0.92;100.00
36502;BME280;25393;46.108;3.390;2022-12-07T00:56:29;98138.84;;;1.04;100.00
36502;BME280;25393;46.108;3.390;2022-12-07T00:58:58;98139.16;;;0.99;100.00
36502;BME280;25393;46.108;3.390;2022-12-07T01:01:28;98126.94;;;0.99;100.00
36502;BME280;25393;46.108;3.390;2022-12-07T01:03:55;98121.91;;;1.09;100.00
36502;BME280;25393;46.108;3.390;2022-12-07T01:06:25;98131.66;;;1.07;100.00
36502;BME280;25393;46.108;3.390;2022-12-07T01:08:52;98127.09;;;0.98;100.00
36502;BME280;25393;46.108;3.390;2022-12-07T01:11:22;98118.84;;;0.79;100.00
36502;BME280;25393;46.108;3.390;2022-12-07T01:13:52;98133.22;;;0.97;100.00
36502;BME280;25393;46.108;3.390;2022-12-07T01:16:21;98133.31;;;0.95;100.00
36502;BME280;25393;46.108;3.390;2022-12-07T01:18:50;98131.38;;;0.86;100.00
36502;BME280;25393;46.108;3.390;2022-12-07T01:21:22;98146.06;;;1.00;100.00
36502;BME280;25393;46.108;3.390;2022-12-07T01:23:50;98136.06;;;0.94;100.00
36502;BME280;25393;46.108;3.390;2022-12-07T01:26:22;98127.00;;;0.87;100.00
36502;BME280;25393;46.108;3.390;2022-12-07T01:28:49;98128.16;;;0.70;100.00
36502;BME280;25393;46.108;3.390;2022-12-07T01:31:18;98132.72;;;0.79;100.00
36502;BME280;25393;46.108;3.390;2022-12-07T01:33:48;98132.31;;;0.73;100.00
36502;BME280;25393;46.108;3.390;2022-12-07T01:36:18;98122.00;;;0.84;100.00
36502;BME280;25393;46.108;3.390;2022-12-07T01:38:46;98135.00;;;0.96;100.00
36502;BME280;25393;46.108;3.390;2022-12-07T01:41:14;98132.09;;;1.01;100.00
36502;BME280;25393;46.108;3.390;2022-12-07T01:47:02;98119.47;;;0.95;100.00
36502;BME280;25393;46.108;3.390;2022-12-07T01:49:40;98131.25;;;1.00;100.00
36502;BME280;25393;46.108;3.390;2022-12-07T01:54:47;98125.06;;;1.14;100.00
36502;BME280;25393;46.108;3.390;2022-12-07T01:57:16;98115.75;;;1.10;100.00
36502;BME280;25393;46.108;3.390;2022-12-07T01:59:44;98121.25;;;0.94;100.00
36502;BME280;25393;46.108;3.390;2022-12-07T02:02:18;98117.66;;;0.95;100.00
36502;BME280;25393;46.108;3.390;2022-12-07T02:04:46;98109.91;;;1.07;100.00
36502;BME280;25393;46.108;3.390;2022-12-07T02:07:12;98122.69;;;0.98;100.00
36502;BME280;25393;46.108;3.390;2022-12-07T02:09:42;98146.16;;;1.11;100.00
36502;BME280;25393;46.108;3.390;2022-12-07T02:12:12;98135.31;;;1.05;100.00
36502;BME280;25393;46.108;3.390;2022-12-07T02:14:42;98138.75;;;1.05;100.00
36502;BME280;25393;46.108;3.390;2022-12-07T02:17:21;98138.72;;;1.18;100.00
36502;BME280;25393;46.108;3.390;2022-12-07T02:29:09;98145.31;;;1.11;100.00
36502;BME280;25393;46.108;3.390;2022-12-07T02:31:43;98137.25;;;1.14;100.00
36502;BME280;25393;46.108;3.390;2022-12-07T02:34:39;98142.72;;;1.11;100.00
36502;BME280;25393;46.108;3.390;2022-12-07T02:40:09;98136.81;;;1.20;100.00
36502;BME280;25393;46.108;3.390;2022-12-07T02:42:48;98122.22;;;1.17;100.00
36502;BME280;25393;46.108;3.390;2022-12-07T02:45:18;98107.09;;;1.10;100.00
36502;BME280;25393;46.108;3.390;2022-12-07T02:47:50;98121.28;;;1.18;100.00
36502;BME280;25393;46.108;3.390;2022-12-07T02:50:20;98115.81;;;0.97;100.00
36502;BME280;25393;46.108;3.390;2022-12-07T02:52:47;98131.88;;;1.04;100.00
36502;BME280;25393;46.108;3.390;2022-12-07T02:55:15;98127.78;;;1.00;100.00
36502;BME280;25393;46.108;3.390;2022-12-07T03:00:26;98103.06;;;0.93;100.00
36502;BME280;25393;46.108;3.390;2022-12-07T03:02:54;98119.13;;;1.12;100.00
36502;BME280;25393;46.108;3.390;2022-12-07T03:11:31;98100.63;;;1.02;100.00
36502;BME280;25393;46.108;3.390;2022-12-07T03:14:11;98104.09;;;1.03;100.00
36502;BME280;25393;46.108;3.390;2022-12-07T03:16:47;98116.72;;;0.96;100.00
36502;BME280;25393;46.108;3.390;2022-12-07T03:19:17;98103.06;;;0.93;100.00
36502;BME280;25393;46.108;3.390;2022-12-07T03:21:49;98097.22;;;1.02;100.00
36502;BME280;25393;46.108;3.390;2022-12-07T03:24:22;98100.41;;;1.06;100.00
36502;BME280;25393;46.108;3.390;2022-12-07T03:26:55;98112.22;;;1.11;100.00
36502;BME280;25393;46.108;3.390;2022-12-07T03:29:28;98118.75;;;1.17;100.00
36502;BME280;25393;46.108;3.390;2022-12-07T03:32:03;98098.53;;;1.08;100.00
36502;BME280;25393;46.108;3.390;2022-12-07T03:34:44;98104.38;;;1.11;100.00
36502;BME280;25393;46.108;3.390;2022-12-07T03:37:22;98100.53;;;1.04;100.00
36502;BME280;25393;46.108;3.390;2022-12-07T03:40:32;98100.84;;;0.99;100.00
36502;BME280;25393;46.108;3.390;2022-12-07T03:43:01;98105.63;;;1.06;100.00
36502;BME280;25393;46.108;3.390;2022-12-07T03:45:44;98108.09;;;1.20;100.00
36502;BME280;25393;46.108;3.390;2022-12-07T03:48:22;98091.81;;;1.16;100.00
36502;BME280;25393;46.108;3.390;2022-12-07T03:51:02;98088.47;;;0.90;100.00
36502;BME280;25393;46.108;3.390;2022-12-07T03:53:37;98080.41;;;0.93;100.00
36502;BME280;25393;46.108;3.390;2022-12-07T03:56:07;98100.09;;;1.10;100.00
36502;BME280;25393;46.108;3.390;2022-12-07T03:58:35;98096.59;;;0.98;100.00
36502;BME280;25393;46.108;3.390;2022-12-07T04:01:03;98088.41;;;1.03;100.00
36502;BME280;25393;46.108;3.390;2022-12-07T04:03:29;98087.34;;;1.06;100.00
36502;BME280;25393;46.108;3.390;2022-12-07T04:05:56;98086.97;;;0.99;100.00
36502;BME280;25393;46.108;3.390;2022-12-07T04:08:24;98083.19;;;1.03;100.00
36502;BME280;25393;46.108;3.390;2022-12-07T04:10:51;98074.88;;;0.98;100.00
36502;BME280;25393;46.108;3.390;2022-12-07T04:13:17;98075.75;;;1.10;100.00
36502;BME280;25393;46.108;3.390;2022-12-07T04:15:44;98085.97;;;1.25;100.00
36502;BME280;25393;46.108;3.390;2022-12-07T04:18:13;98065.00;;;1.14;100.00
36502;BME280;25393;46.108;3.390;2022-12-07T04:20:39;98076.44;;;1.24;100.00
36502;BME280;25393;46.108;3.390;2022-12-07T04:23:06;98073.75;;;1.13;100.00
36502;BME280;25393;46.108;3.390;2022-12-07T04:25:33;98075.53;;;1.13;100.00
36502;BME280;25393;46.108;3.390;2022-12-07T04:27:59;98065.38;;;1.21;100.00
36502;BME280;25393;46.108;3.390;2022-12-07T04:30:26;98079.81;;;1.14;100.00
36502;BME280;25393;46.108;3.390;2022-12-07T04:32:52;98055.72;;;1.10;100.00
36502;BME280;25393;46.108;3.390;2022-12-07T04:35:19;98070.53;;;1.10;100.00
36502;BME280;25393;46.108;3.390;2022-12-07T04:37:45;98071.06;;;1.15;100.00
36502;BME280;25393;46.108;3.390;2022-12-07T04:40:15;98088.59;;;1.13;100.00
36502;BME280;25393;46.108;3.390;2022-12-07T04:42:41;98078.94;;;1.02;100.00
36502;BME280;25393;46.108;3.390;2022-12-07T04:45:08;98087.03;;;1.10;100.00
36502;BME280;25393;46.108;3.390;2022-12-07T04:47:35;98095.50;;;1.37;100.00
36502;BME280;25393;46.108;3.390;2022-12-07T04:50:02;98100.19;;;1.45;100.00
36502;BME280;25393;46.108;3.390;2022-12-07T04:52:29;98091.06;;;1.27;100.00
36502;BME280;25393;46.108;3.390;2022-12-07T04:54:56;98073.63;;;0.91;100.00
36502;BME280;25393;46.108;3.390;2022-12-07T04:57:22;98096.78;;;1.08;100.00
36502;BME280;25393;46.108;3.390;2022-12-07T04:59:49;98066.09;;;0.99;100.00
36502;BME280;25393;46.108;3.390;2022-12-07T05:02:16;98082.97;;;1.19;100.00
36502;BME280;25393;46.108;3.390;2022-12-07T05:04:42;98067.72;;;1.13;100.00
36502;BME280;25393;46.108;3.390;2022-12-07T05:07:09;98065.72;;;1.16;100.00
36502;BME280;25393;46.108;3.390;2022-12-07T05:09:35;98068.13;;;1.19;100.00
36502;BME280;25393;46.108;3.390;2022-12-07T05:12:02;98065.91;;;1.26;100.00
36502;BME280;25393;46.108;3.390;2022-12-07T05:14:29;98061.44;;;1.15;100.00
36502;BME280;25393;46.108;3.390;2022-12-07T05:16:55;98050.34;;;1.24;100.00
36502;BME280;25393;46.108;3.390;2022-12-07T05:19:22;98054.78;;;1.11;100.00
36502;BME280;25393;46.108;3.390;2022-12-07T05:21:51;98040.03;;;1.10;100.00
36502;BME280;25393;46.108;3.390;2022-12-07T05:24:18;98059.00;;;1.25;100.00
36502;BME280;25393;46.108;3.390;2022-12-07T05:26:46;98059.47;;;1.06;100.00
36502;BME280;25393;46.108;3.390;2022-12-07T05:29:15;98055.84;;;0.96;100.00
36502;BME280;25393;46.108;3.390;2022-12-07T05:31:42;98047.19;;;0.95;100.00
36502;BME280;25393;46.108;3.390;2022-12-07T05:34:09;98060.72;;;1.13;100.00
36502;BME280;25393;46.108;3.390;2022-12-07T05:36:35;98048.16;;;1.18;100.00
36502;BME280;25393;46.108;3.390;2022-12-07T05:39:02;98055.06;;;1.19;100.00
36502;BME280;25393;46.108;3.390;2022-12-07T05:41:29;98058.44;;;1.09;100.00
36502;BME280;25393;46.108;3.390;2022-12-07T05:44:14;98066.09;;;0.99;100.00
36502;BME280;25393;46.108;3.390;2022-12-07T05:46:41;98046.78;;;0.89;100.00
36502;BME280;25393;46.108;3.390;2022-12-07T05:49:07;98061.81;;;0.98;100.00
36502;BME280;25393;46.108;3.390;2022-12-07T05:51:34;98055.09;;;1.07;100.00
36502;BME280;25393;46.108;3.390;2022-12-07T05:54:00;98058.78;;;1.04;100.00
36502;BME280;25393;46.108;3.390;2022-12-07T05:56:27;98044.94;;;0.91;100.00
36502;BME280;25393;46.108;3.390;2022-12-07T05:58:54;98042.81;;;0.96;100.00
36502;BME280;25393;46.108;3.390;2022-12-07T06:01:39;98058.09;;;1.13;100.00
36502;BME280;25393;46.108;3.390;2022-12-07T06:04:06;98065.66;;;1.05;100.00
36502;BME280;25393;46.108;3.390;2022-12-07T06:06:33;98070.88;;;1.05;100.00
36502;BME280;25393;46.108;3.390;2022-12-07T06:09:00;98064.44;;;0.98;100.00
36502;BME280;25393;46.108;3.390;2022-12-07T06:11:26;98065.59;;;0.94;100.00
36502;BME280;25393;46.108;3.390;2022-12-07T06:14:11;98059.13;;;0.87;100.00
36502;BME280;25393;46.108;3.390;2022-12-07T06:16:38;98054.41;;;0.92;100.00
36502;BME280;25393;46.108;3.390;2022-12-07T06:19:05;98063.31;;;1.13;100.00
36502;BME280;25393;46.108;3.390;2022-12-07T06:21:31;98055.00;;;1.08;100.00
36502;BME280;25393;46.108;3.390;2022-12-07T06:23:58;98055.44;;;1.02;100.00
36502;BME280;25393;46.108;3.390;2022-12-07T06:26:24;98058.53;;;1.07;100.00
36502;BME280;25393;46.108;3.390;2022-12-07T06:28:51;98080.16;;;1.09;100.00
36502;BME280;25393;46.108;3.390;2022-12-07T06:31:20;98066.06;;;1.12;100.00
36502;BME280;25393;46.108;3.390;2022-12-07T06:33:49;98062.47;;;1.13;100.00
36502;BME280;25393;46.108;3.390;2022-12-07T06:36:16;98057.75;;;0.94;100.00
36502;BME280;25393;46.108;3.390;2022-12-07T06:38:48;98071.81;;;1.04;100.00
36502;BME280;25393;46.108;3.390;2022-12-07T06:41:14;98071.88;;;0.91;100.00
36502;BME280;25393;46.108;3.390;2022-12-07T06:43:41;98058.41;;;0.85;100.00
36502;BME280;25393;46.108;3.390;2022-12-07T06:46:08;98066.69;;;1.02;100.00
36502;BME280;25393;46.108;3.390;2022-12-07T06:48:35;98047.94;;;0.97;100.00
36502;BME280;25393;46.108;3.390;2022-12-07T06:51:01;98063.91;;;0.93;100.00
36502;BME280;25393;46.108;3.390;2022-12-07T06:53:28;98060.66;;;1.02;100.00
36502;BME280;25393;46.108;3.390;2022-12-07T06:55:57;98070.88;;;1.05;100.00
36502;BME280;25393;46.108;3.390;2022-12-07T06:58:27;98070.28;;;1.02;100.00
36502;BME280;25393;46.108;3.390;2022-12-07T07:00:56;98079.03;;;1.00;100.00
36502;BME280;25393;46.108;3.390;2022-12-07T07:03:27;98076.53;;;0.99;100.00
36502;BME280;25393;46.108;3.390;2022-12-07T07:05:53;98081.44;;;1.04;100.00
36502;BME280;25393;46.108;3.390;2022-12-07T07:08:22;98073.19;;;0.97;100.00
36502;BME280;25393;46.108;3.390;2022-12-07T07:10:50;98079.66;;;1.04;100.00
36502;BME280;25393;46.108;3.390;2022-12-07T07:13:17;98096.84;;;1.19;100.00
36502;BME280;25393;46.108;3.390;2022-12-07T07:15:43;98086.41;;;1.19;100.00
36502;BME280;25393;46.108;3.390;2022-12-07T07:18:10;98077.88;;;1.05;100.00
36502;BME280;25393;46.108;3.390;2022-12-07T07:20:37;98073.75;;;1.13;100.00
36502;BME280;25393;46.108;3.390;2022-12-07T07:23:04;98088.28;;;1.17;100.00
36502;BME280;25393;46.108;3.390;2022-12-07T07:25:31;98089.66;;;1.10;100.00
36502;BME280;25393;46.108;3.390;2022-12-07T07:27:58;98101.50;;;1.27;100.00
36502;BME280;25393;46.108;3.390;2022-12-07T07:30:25;98078.44;;;1.21;100.00
36502;BME280;25393;46.108;3.390;2022-12-07T07:32:58;98089.56;;;1.35;100.00
36502;BME280;25393;46.108;3.390;2022-12-07T07:35:30;98085.03;;;1.26;100.00
36502;BME280;25393;46.108;3.390;2022-12-07T07:38:00;98084.28;;;1.24;100.00
36502;BME280;25393;46.108;3.390;2022-12-07T07:40:29;98106.31;;;1.33;100.00
36502;BME280;25393;46.108;3.390;2022-12-07T07:42:57;98108.69;;;1.36;100.00
36502;BME280;25393;46.108;3.390;2022-12-07T07:45:26;98104.31;;;1.36;100.00
36502;BME280;25393;46.108;3.390;2022-12-07T07:47:54;98085.34;;;1.22;100.00
36502;BME280;25393;46.108;3.390;2022-12-07T07:50:21;98105.25;;;1.35;100.00
36502;BME280;25393;46.108;3.390;2022-12-07T07:52:48;98099.91;;;1.37;100.00
36502;BME280;25393;46.108;3.390;2022-12-07T07:55:15;98113.41;;;1.31;100.00
36502;BME280;25393;46.108;3.390;2022-12-07T07:57:44;98100.63;;;1.39;100.00
36502;BME280;25393;46.108;3.390;2022-12-07T08:00:19;98116.34;;;1.26;100.00
36502;BME280;25393;46.108;3.390;2022-12-07T08:02:46;98104.22;;;1.25;100.00
36502;BME280;25393;46.108;3.390;2022-12-07T08:05:13;98117.06;;;1.28;100.00
36502;BME280;25393;46.108;3.390;2022-12-07T08:07:40;98105.31;;;1.10;100.00
36502;BME280;25393;46.108;3.390;2022-12-07T08:10:08;98112.00;;;1.14;100.00
36502;BME280;25393;46.108;3.390;2022-12-07T08:12:41;98116.78;;;1.20;100.00
36502;BME280;25393;46.108;3.390;2022-12-07T08:15:29;98111.41;;;1.34;100.00
36502;BME280;25393;46.108;3.390;2022-12-07T08:17:57;98100.63;;;1.39;100.00
36502;BME280;25393;46.108;3.390;2022-12-07T08:20:26;98103.31;;;1.50;100.00
36502;BME280;25393;46.108;3.390;2022-12-07T08:22:53;98114.81;;;1.47;100.00
36502;BME280;25393;46.108;3.390;2022-12-07T08:25:19;98091.78;;;1.76;100.00
36502;BME280;25393;46.108;3.390;2022-12-07T08:27:47;98106.59;;;1.99;100.00
36502;BME280;25393;46.108;3.390;2022-12-07T08:30:14;98094.84;;;2.05;100.00
36502;BME280;25393;46.108;3.390;2022-12-07T08:32:41;98117.31;;;2.08;100.00
36502;BME280;25393;46.108;3.390;2022-12-07T08:35:09;98112.50;;;1.90;100.00
36502;BME280;25393;46.108;3.390;2022-12-07T08:37:36;98128.97;;;2.04;100.00
36502;BME280;25393;46.108;3.390;2022-12-07T08:40:05;98129.84;;;1.91;100.00
36502;BME280;25393;46.108;3.390;2022-12-07T08:42:43;98112.63;;;1.89;100.00
36502;BME280;25393;46.108;3.390;2022-12-07T08:45:12;98128.41;;;1.87;100.00
36502;BME280;25393;46.108;3.390;2022-12-07T08:47:53;98133.72;;;1.75;100.00
36502;BME280;25393;46.108;3.390;2022-12-07T08:50:23;98114.16;;;1.57;100.00
36502;BME280;25393;46.108;3.390;2022-12-07T08:52:53;98112.91;;;1.49;100.00
36502;BME280;25393;46.108;3.390;2022-12-07T08:55:21;98134.97;;;1.69;100.00
36502;BME280;25393;46.108;3.390;2022-12-07T08:57:49;98134.28;;;1.67;100.00
36502;BME280;25393;46.108;3.390;2022-12-07T09:00:16;98142.78;;;1.58;100.00
36502;BME280;25393;46.108;3.390;2022-12-07T09:02:44;98142.63;;;1.72;100.00
36502;BME280;25393;46.108;3.390;2022-12-07T09:05:12;98141.94;;;1.81;100.00
36502;BME280;25393;46.108;3.390;2022-12-07T09:07:44;98145.88;;;1.87;100.00
36502;BME280;25393;46.108;3.390;2022-12-07T09:10:12;98140.41;;;1.79;100.00
36502;BME280;25393;46.108;3.390;2022-12-07T09:12:40;98135.16;;;1.79;100.00
36502;BME280;25393;46.108;3.390;2022-12-07T09:15:07;98128.59;;;1.73;100.00
36502;BME280;25393;46.108;3.390;2022-12-07T09:17:35;98150.06;;;1.89;100.00
36502;BME280;25393;46.108;3.390;2022-12-07T09:20:04;98147.84;;;1.96;100.00
36502;BME280;25393;46.108;3.390;2022-12-07T09:22:31;98145.88;;;1.87;100.00
36502;BME280;25393;46.108;3.390;2022-12-07T09:24:58;98145.16;;;1.85;100.00
36502;BME280;25393;46.108;3.390;2022-12-07T09:27:30;98150.25;;;1.75;100.00
36502;BME280;25393;46.108;3.390;2022-12-07T09:30:03;98144.88;;;1.77;100.00
36502;BME280;25393;46.108;3.390;2022-12-07T09:32:31;98143.00;;;1.79;100.00
36502;BME280;25393;46.108;3.390;2022-12-07T09:34:58;98140.09;;;1.71;100.00
36502;BME280;25393;46.108;3.390;2022-12-07T09:37:27;98129.75;;;1.45;100.00
36502;BME280;25393;46.108;3.390;2022-12-07T09:39:54;98142.28;;;1.77;100.00
36502;BME280;25393;46.108;3.390;2022-12-07T09:42:34;98132.28;;;1.71;100.00
36502;BME280;25393;46.108;3.390;2022-12-07T09:45:04;98128.66;;;1.84;100.00
36502;BME280;25393;46.108;3.390;2022-12-07T09:47:32;98114.22;;;1.68;100.00
36502;BME280;25393;46.108;3.390;2022-12-07T09:50:13;98144.84;;;1.89;100.00
36502;BME280;25393;46.108;3.390;2022-12-07T09:52:41;98153.84;;;1.85;100.00
36502;BME280;25393;46.108;3.390;2022-12-07T09:55:13;98141.38;;;1.89;100.00
36502;BME280;25393;46.108;3.390;2022-12-07T09:57:41;98160.63;;;1.88;100.00
36502;BME280;25393;46.108;3.390;2022-12-07T10:00:18;98147.56;;;1.88;100.00
36502;BME280;25393;46.108;3.390;2022-12-07T10:02:58;98154.03;;;2.06;100.00
36502;BME280;25393;46.108;3.390;2022-12-07T10:05:37;98148.22;;;2.03;100.00
36502;BME280;25393;46.108;3.390;2022-12-07T10:08:05;98148.31;;;2.01;100.00
36502;BME280;25393;46.108;3.390;2022-12-07T10:10:34;98146.28;;;1.93;100.00
36502;BME280;25393;46.108;3.390;2022-12-07T10:15:56;98133.41;;;1.79;100.00
36502;BME280;25393;46.108;3.390;2022-12-07T10:18:39;98123.41;;;1.84;100.00
36502;BME280;25393;46.108;3.390;2022-12-07T10:23:35;98130.00;;;2.01;100.00
36502;BME280;25393;46.108;3.390;2022-12-07T10:29:14;98117.25;;;1.85;100.00
36502;BME280;25393;46.108;3.390;2022-12-07T10:31:41;98128.41;;;1.87;100.00
36502;BME280;25393;46.108;3.390;2022-12-07T10:34:29;98118.34;;;1.94;100.00
36502;BME280;25393;46.108;3.390;2022-12-07T10:37:18;98117.06;;;1.99;100.00
36502;BME280;25393;46.108;3.390;2022-12-07T10:39:51;98110.41;;;1.95;100.00
36502;BME280;25393;46.108;3.390;2022-12-07T10:42:21;98102.31;;;1.98;100.00
36502;BME280;25393;46.108;3.390;2022-12-07T10:44:50;98104.00;;;1.99;100.00
36502;BME280;25393;46.108;3.390;2022-12-07T10:56:01;98102.03;;;1.90;100.00
36502;BME280;25393;46.108;3.390;2022-12-07T11:01:34;98088.44;;;2.09;100.00
36502;BME280;25393;46.108;3.390;2022-12-07T11:04:40;98078.94;;;2.08;100.00
36502;BME280;25393;46.108;3.390;2022-12-07T11:07:37;98074.94;;;2.37;100.00
36502;BME280;25393;46.108;3.390;2022-12-07T11:10:21;98075.88;;;2.25;100.00
36502;BME280;25393;46.108;3.390;2022-12-07T11:15:49;98064.69;;;2.23;100.00
36502;BME280;25393;46.108;3.390;2022-12-07T11:21:17;98060.44;;;2.33;100.00
36502;BME280;25393;46.108;3.390;2022-12-07T11:24:06;98070.91;;;2.33;100.00
36502;BME280;25393;46.108;3.390;2022-12-07T11:26:47;98056.38;;;2.29;100.00
36502;BME280;25393;46.108;3.390;2022-12-07T11:34:57;98057.72;;;2.35;100.00
36502;BME280;25393;46.108;3.390;2022-12-07T11:37:35;98049.97;;;2.33;100.00
36502;BME280;25393;46.108;3.390;2022-12-07T11:40:22;98047.34;;;2.33;100.00
36502;BME280;25393;46.108;3.390;2022-12-07T11:42:58;98052.09;;;2.39;100.00
36502;BME280;25393;46.108;3.390;2022-12-07T11:45:32;98039.50;;;2.44;100.00
36502;BME280;25393;46.108;3.390;2022-12-07T11:48:06;98027.50;;;2.31;100.00
36502;BME280;25393;46.108;3.390;2022-12-07T11:50:46;98037.25;;;2.40;100.00
36502;BME280;25393;46.108;3.390;2022-12-07T11:53:18;98043.31;;;2.40;100.00
36502;BME280;25393;46.108;3.390;2022-12-07T12:03:51;98030.94;;;2.53;100.00
36502;BME280;25393;46.108;3.390;2022-12-07T12:06:20;98030.84;;;2.55;100.00
36502;BME280;25393;46.108;3.390;2022-12-07T12:15:13;98026.78;;;2.73;100.00
36502;BME280;25393;46.108;3.390;2022-12-07T12:20:46;98022.59;;;2.82;100.00
36502;BME280;25393;46.108;3.390;2022-12-07T12:23:48;98007.28;;;2.77;100.00
36502;BME280;25393;46.108;3.390;2022-12-07T12:26:21;98016.91;;;2.88;100.00
36502;BME280;25393;46.108;3.390;2022-12-07T12:31:37;98015.34;;;2.85;100.00
36502;BME280;25393;46.108;3.390;2022-12-07T12:37:40;98002.22;;;2.96;100.00
36502;BME280;25393;46.108;3.390;2022-12-07T12:42:52;97992.03;;;2.71;100.00
36502;BME280;25393;46.108;3.390;2022-12-07T12:45:29;97990.75;;;2.66;100.00
36502;BME280;25393;46.108;3.390;2022-12-07T12:47:59;97979.44;;;2.65;100.00
36502;BME280;25393;46.108;3.390;2022-12-07T12:50:35;97984.56;;;2.56;100.00
36502;BME280;25393;46.108;3.390;2022-12-07T13:00:47;97969.91;;;2.64;100.00
36502;BME280;25393;46.108;3.390;2022-12-07T13:03:26;97970.03;;;2.74;100.00
36502;BME280;25393;46.108;3.390;2022-12-07T13:08:46;97965.50;;;2.76;100.00
36502;BME280;25393;46.108;3.390;2022-12-07T13:11:19;97951.22;;;2.80;100.00
36502;BME280;25393;46.108;3.390;2022-12-07T13:13:46;97959.09;;;2.69;100.00
36502;BME280;25393;46.108;3.390;2022-12-07T13:18:39;97959.78;;;2.82;100.00
36502;BME280;25393;46.108;3.390;2022-12-07T13:34:34;97951.06;;;2.38;100.00
36502;BME280;25393;46.108;3.390;2022-12-07T13:39:50;97946.06;;;2.35;100.00
36502;BME280;25393;46.108;3.390;2022-12-07T13:42:30;97937.50;;;2.33;100.00
36502;BME280;25393;46.108;3.390;2022-12-07T13:45:23;97943.31;;;2.37;100.00
36502;BME280;25393;46.108;3.390;2022-12-07T13:48:24;97927.94;;;2.55;100.00
36502;BME280;25393;46.108;3.390;2022-12-07T13:50:56;97925.91;;;2.58;100.00
36502;BME280;25393;46.108;3.390;2022-12-07T13:53:23;97923.31;;;2.58;100.00
36502;BME280;25393;46.108;3.390;2022-12-07T13:55:50;97924.50;;;2.54;100.00
36502;BME280;25393;46.108;3.390;2022-12-07T13:58:21;97928.19;;;2.51;100.00
36502;BME280;25393;46.108;3.390;2022-12-07T14:00:48;97917.13;;;2.59;100.00
36502;BME280;25393;46.108;3.390;2022-12-07T14:05:44;97910.31;;;2.68;100.00
36502;BME280;25393;46.108;3.390;2022-12-07T14:13:38;97921.31;;;2.93;100.00
36502;BME280;25393;46.108;3.390;2022-12-07T14:16:41;97915.63;;;2.88;100.00
36502;BME280;25393;46.108;3.390;2022-12-07T14:19:42;97913.16;;;2.76;100.00
36502;BME280;25393;46.108;3.390;2022-12-07T14:22:24;97917.78;;;2.83;100.00
36502;BME280;25393;46.108;3.390;2022-12-07T14:27:34;97904.09;;;2.80;100.00
36502;BME280;25393;46.108;3.390;2022-12-07T14:30:03;97910.31;;;2.68;100.00
36502;BME280;25393;46.108;3.390;2022-12-07T14:32:37;97905.06;;;2.68;100.00
36502;BME280;25393;46.108;3.390;2022-12-07T14:35:12;97912.56;;;2.72;100.00
36502;BME280;25393;46.108;3.390;2022-12-07T14:37:41;97916.53;;;2.67;100.00
36502;BME280;25393;46.108;3.390;2022-12-07T14:40:19;97915.78;;;2.76;100.00
36502;BME280;25393;46.108;3.390;2022-12-07T14:42:47;97911.72;;;2.72;100.00
36502;BME280;25393;46.108;3.390;2022-12-07T14:45:18;97917.94;;;2.71;100.00
36502;BME280;25393;46.108;3.390;2022-12-07T14:47:45;97904.75;;;2.61;100.00
36502;BME280;25393;46.108;3.390;2022-12-07T14:50:38;97913.16;;;2.76;100.00
36502;BME280;25393;46.108;3.390;2022-12-07T14:53:33;97902.25;;;2.71;100.00
36502;BME280;25393;46.108;3.390;2022-12-07T14:56:03;97894.28;;;2.50;100.00
36502;BME280;25393;46.108;3.390;2022-12-07T14:58:33;97893.25;;;2.41;100.00
36502;BME280;25393;46.108;3.390;2022-12-07T15:01:01;97892.50;;;2.50;100.00
36502;BME280;25393;46.108;3.390;2022-12-07T15:03:28;97890.28;;;2.46;100.00
36502;BME280;25393;46.108;3.390;2022-12-07T15:05:55;97891.34;;;2.43;100.00
36502;BME280;25393;46.108;3.390;2022-12-07T15:08:22;97893.94;;;2.55;100.00
36502;BME280;25393;46.108;3.390;2022-12-07T15:10:49;97893.94;;;2.43;100.00
36502;BME280;25393;46.108;3.390;2022-12-07T15:13:15;97891.72;;;2.39;100.00
36502;BME280;25393;46.108;3.390;2022-12-07T15:16:10;97898.59;;;2.40;100.00
36502;BME280;25393;46.108;3.390;2022-12-07T15:18:38;97896.31;;;2.46;100.00
36502;BME280;25393;46.108;3.390;2022-12-07T15:21:15;97897.41;;;2.44;100.00
36502;BME280;25393;46.108;3.390;2022-12-07T15:23:42;97895.13;;;2.39;100.00
36502;BME280;25393;46.108;3.390;2022-12-07T15:26:11;97898.72;;;2.38;100.00